sensor_id;sensor_type;location;lat;lon;timestamp;temperature;humidity
4548;DHT22;2286;51.570;7.090;2023-04-24T00:01:09;11.10;99.90
4548;DHT22;2286;51.570;7.090;2023-04-24T00:03:36;11.10;99.90
4548;DHT22;2286;51.570;7.090;2023-04-24T00:06:04;11.10;99.90
4548;DHT22;2286;51.570;7.090;2023-04-24T00:08:32;11.10;99.90
4548;DHT22;2286;51.570;7.090;2023-04-24T00:11:00;11.00;99.90
4548;DHT22;2286;51.570;7.090;2023-04-24T00:13:27;11.00;1.00
4548;DHT22;2286;51.570;7.090;2023-04-24T00:15:55;11.00;99.90
4548;DHT22;2286;51.570;7.090;2023-04-24T00:18:22;11.10;99.90
4548;DHT22;2286;51.570;7.090;2023-04-24T00:20:49;11.10;99.90
4548;DHT22;2286;51.570;7.090;2023-04-24T00:23:16;11.10;99.90
4548;DHT22;2286;51.570;7.090;2023-04-24T00:25:43;11.10;99.90
4548;DHT22;2286;51.570;7.090;2023-04-24T00:28:11;11.10;99.90
4548;DHT22;2286;51.570;7.090;2023-04-24T00:30:38;11.20;99.00
4548;DHT22;2286;51.570;7.090;2023-04-24T00:33:05;11.20;99.90
4548;DHT22;2286;51.570;7.090;2023-04-24T00:35:32;11.20;87.90
4548;DHT22;2286;51.570;7.090;2023-04-24T00:37:59;11.30;99.90
4548;DHT22;2286;51.570;7.090;2023-04-24T00:40:27;11.20;1.00
4548;DHT22;2286;51.570;7.090;2023-04-24T00:42:54;11.20;1.00
4548;DHT22;2286;51.570;7.090;2023-04-24T00:45:23;11.20;1.00
4548;DHT22;2286;51.570;7.090;2023-04-24T00:47:52;11.20;1.00
4548;DHT22;2286;51.570;7.090;2023-04-24T00:50:20;11.20;1.00
4548;DHT22;2286;51.570;7.090;2023-04-24T00:52:48;11.20;1.00
4548;DHT22;2286;51.570;7.090;2023-04-24T00:55:15;11.20;99.90
4548;DHT22;2286;51.570;7.090;2023-04-24T00:57:42;11.20;99.90
4548;DHT22;2286;51.570;7.090;2023-04-24T01:00:10;11.20;99.90
4548;DHT22;2286;51.570;7.090;2023-04-24T01:02:40;11.10;1.00
4548;DHT22;2286;51.570;7.090;2023-04-24T01:05:10;11.00;1.00
4548;DHT22;2286;51.570;7.090;2023-04-24T01:07:38;10.90;1.00
4548;DHT22;2286;51.570;7.090;2023-04-24T01:10:07;10.80;1.00
4548;DHT22;2286;51.570;7.090;2023-04-24T01:12:35;10.70;6.60
4548;DHT22;2286;51.570;7.090;2023-04-24T01:15:02;10.70;99.90
4548;DHT22;2286;51.570;7.090;2023-04-24T01:17:30;10.70;99.90
4548;DHT22;2286;51.570;7.090;2023-04-24T01:19:59;10.70;99.90
4548;DHT22;2286;51.570;7.090;2023-04-24T01:22:29;10.70;99.90
4548;DHT22;2286;51.570;7.090;2023-04-24T01:24:56;10.70;99.90
4548;DHT22;2286;51.570;7.090;2023-04-24T01:27:23;10.50;1.00
4548;DHT22;2286;51.570;7.090;2023-04-24T01:29:50;10.40;1.00
4548;DHT22;2286;51.570;7.090;2023-04-24T01:32:18;10.30;1.00
4548;DHT22;2286;51.570;7.090;2023-04-24T01:34:45;10.30;1.00
4548;DHT22;2286;51.570;7.090;2023-04-24T01:37:13;10.30;1.00
4548;DHT22;2286;51.570;7.090;2023-04-24T01:39:42;10.30;1.00
4548;DHT22;2286;51.570;7.090;2023-04-24T01:42:10;10.40;1.00
4548;DHT22;2286;51.570;7.090;2023-04-24T01:44:37;10.40;1.00
4548;DHT22;2286;51.570;7.090;2023-04-24T01:47:04;10.30;1.00
4548;DHT22;2286;51.570;7.090;2023-04-24T01:49:32;10.30;1.00
4548;DHT22;2286;51.570;7.090;2023-04-24T01:52:00;10.20;1.00
4548;DHT22;2286;51.570;7.090;2023-04-24T01:54:27;10.10;1.00
4548;DHT22;2286;51.570;7.090;2023-04-24T01:56:55;10.00;2.10
4548;DHT22;2286;51.570;7.090;2023-04-24T01:59:23;9.90;1.00
4548;DHT22;2286;51.570;7.090;2023-04-24T02:01:51;9.90;25.50
4548;DHT22;2286;51.570;7.090;2023-04-24T02:04:19;9.80;1.00
4548;DHT22;2286;51.570;7.090;2023-04-24T02:06:46;9.80;99.90
4548;DHT22;2286;51.570;7.090;2023-04-24T02:09:13;9.80;99.90
4548;DHT22;2286;51.570;7.090;2023-04-24T02:11:40;9.90;99.90
4548;DHT22;2286;51.570;7.090;2023-04-24T02:14:08;9.90;99.90
4548;DHT22;2286;51.570;7.090;2023-04-24T02:16:35;9.90;99.90
4548;DHT22;2286;51.570;7.090;2023-04-24T02:19:02;9.90;99.90
4548;DHT22;2286;51.570;7.090;2023-04-24T02:21:29;9.90;99.90
4548;DHT22;2286;51.570;7.090;2023-04-24T02:23:57;9.90;99.90
4548;DHT22;2286;51.570;7.090;2023-04-24T02:26:24;9.90;99.90
4548;DHT22;2286;51.570;7.090;2023-04-24T02:28:51;9.90;99.90
4548;DHT22;2286;51.570;7.090;2023-04-24T02:31:20;9.80;99.90
4548;DHT22;2286;51.570;7.090;2023-04-24T02:33:47;9.80;23.50
4548;DHT22;2286;51.570;7.090;2023-04-24T02:36:14;9.80;99.90
4548;DHT22;2286;51.570;7.090;2023-04-24T02:38:41;9.80;99.90
4548;DHT22;2286;51.570;7.090;2023-04-24T02:41:08;9.80;99.90
4548;DHT22;2286;51.570;7.090;2023-04-24T02:43:35;9.80;99.90
4548;DHT22;2286;51.570;7.090;2023-04-24T02:46:02;9.80;99.90
4548;DHT22;2286;51.570;7.090;2023-04-24T02:48:31;9.80;99.90
4548;DHT22;2286;51.570;7.090;2023-04-24T02:50:58;9.80;99.90
4548;DHT22;2286;51.570;7.090;2023-04-24T02:53:25;9.70;99.90
4548;DHT22;2286;51.570;7.090;2023-04-24T02:55:52;9.70;99.90
4548;DHT22;2286;51.570;7.090;2023-04-24T02:58:19;9.70;99.90
4548;DHT22;2286;51.570;7.090;2023-04-24T03:00:46;9.70;99.90
4548;DHT22;2286;51.570;7.090;2023-04-24T03:03:13;9.70;99.90
4548;DHT22;2286;51.570;7.090;2023-04-24T03:05:42;9.70;1.00
4548;DHT22;2286;51.570;7.090;2023-04-24T03:08:09;9.70;99.90
4548;DHT22;2286;51.570;7.090;2023-04-24T03:10:36;9.70;99.90
4548;DHT22;2286;51.570;7.090;2023-04-24T03:13:03;9.70;99.90
4548;DHT22;2286;51.570;7.090;2023-04-24T03:15:30;9.70;99.90
4548;DHT22;2286;51.570;7.090;2023-04-24T03:17:57;9.70;1.00
4548;DHT22;2286;51.570;7.090;2023-04-24T03:20:24;9.70;99.90
4548;DHT22;2286;51.570;7.090;2023-04-24T03:22:52;9.70;99.90
4548;DHT22;2286;51.570;7.090;2023-04-24T03:25:19;9.60;99.90
4548;DHT22;2286;51.570;7.090;2023-04-24T03:27:46;9.60;99.90
4548;DHT22;2286;51.570;7.090;2023-04-24T03:30:13;9.60;99.90
4548;DHT22;2286;51.570;7.090;2023-04-24T03:32:40;9.60;99.90
4548;DHT22;2286;51.570;7.090;2023-04-24T03:35:07;9.60;1.00
4548;DHT22;2286;51.570;7.090;2023-04-24T03:37:35;9.70;99.90
4548;DHT22;2286;51.570;7.090;2023-04-24T03:40:03;9.70;1.00
4548;DHT22;2286;51.570;7.090;2023-04-24T03:42:31;9.60;1.00
4548;DHT22;2286;51.570;7.090;2023-04-24T03:44:58;9.60;1.00
4548;DHT22;2286;51.570;7.090;2023-04-24T03:47:25;9.60;1.00
4548;DHT22;2286;51.570;7.090;2023-04-24T03:49:52;9.60;1.00
4548;DHT22;2286;51.570;7.090;2023-04-24T03:52:19;9.70;1.00
4548;DHT22;2286;51.570;7.090;2023-04-24T03:54:46;9.70;1.00
4548;DHT22;2286;51.570;7.090;2023-04-24T03:57:15;9.60;1.00
4548;DHT22;2286;51.570;7.090;2023-04-24T03:59:41;9.60;1.00
4548;DHT22;2286;51.570;7.090;2023-04-24T04:02:08;9.60;1.00
4548;DHT22;2286;51.570;7.090;2023-04-24T04:04:35;9.70;1.00
4548;DHT22;2286;51.570;7.090;2023-04-24T04:07:02;9.70;99.90
4548;DHT22;2286;51.570;7.090;2023-04-24T04:09:30;9.70;1.00
4548;DHT22;2286;51.570;7.090;2023-04-24T04:11:58;9.70;1.00
4548;DHT22;2286;51.570;7.090;2023-04-24T04:14:27;9.70;99.90
4548;DHT22;2286;51.570;7.090;2023-04-24T04:16:54;9.70;99.90
4548;DHT22;2286;51.570;7.090;2023-04-24T04:19:21;9.70;99.90
4548;DHT22;2286;51.570;7.090;2023-04-24T04:21:48;9.70;99.90
4548;DHT22;2286;51.570;7.090;2023-04-24T04:24:18;9.70;99.90
4548;DHT22;2286;51.570;7.090;2023-04-24T04:26:46;9.70;99.90
4548;DHT22;2286;51.570;7.090;2023-04-24T04:29:13;9.70;99.90
4548;DHT22;2286;51.570;7.090;2023-04-24T04:31:42;9.70;99.90
4548;DHT22;2286;51.570;7.090;2023-04-24T04:34:09;9.80;99.90
4548;DHT22;2286;51.570;7.090;2023-04-24T04:36:37;9.70;99.90
4548;DHT22;2286;51.570;7.090;2023-04-24T04:39:05;9.80;99.90
4548;DHT22;2286;51.570;7.090;2023-04-24T04:41:33;9.80;99.90
4548;DHT22;2286;51.570;7.090;2023-04-24T04:44:01;9.80;99.90
4548;DHT22;2286;51.570;7.090;2023-04-24T04:46:30;9.80;36.30
4548;DHT22;2286;51.570;7.090;2023-04-24T04:49:01;9.80;75.80
4548;DHT22;2286;51.570;7.090;2023-04-24T04:51:28;9.80;1.90
4548;DHT22;2286;51.570;7.090;2023-04-24T04:53:56;9.80;54.20
4548;DHT22;2286;51.570;7.090;2023-04-24T04:56:23;9.80;1.00
4548;DHT22;2286;51.570;7.090;2023-04-24T04:58:51;9.80;1.00
4548;DHT22;2286;51.570;7.090;2023-04-24T05:01:17;9.80;1.00
4548;DHT22;2286;51.570;7.090;2023-04-24T05:03:46;9.80;1.00
4548;DHT22;2286;51.570;7.090;2023-04-24T05:06:14;9.70;1.00
4548;DHT22;2286;51.570;7.090;2023-04-24T05:08:41;9.80;1.00
4548;DHT22;2286;51.570;7.090;2023-04-24T05:11:08;9.80;1.00
4548;DHT22;2286;51.570;7.090;2023-04-24T05:13:35;9.80;1.00
4548;DHT22;2286;51.570;7.090;2023-04-24T05:16:02;9.80;1.00
4548;DHT22;2286;51.570;7.090;2023-04-24T05:18:29;9.80;1.00
4548;DHT22;2286;51.570;7.090;2023-04-24T05:20:56;9.80;1.00
4548;DHT22;2286;51.570;7.090;2023-04-24T05:23:24;9.90;1.00
4548;DHT22;2286;51.570;7.090;2023-04-24T05:25:51;9.90;99.90
4548;DHT22;2286;51.570;7.090;2023-04-24T05:28:18;9.80;1.00
4548;DHT22;2286;51.570;7.090;2023-04-24T05:30:45;9.80;1.00
4548;DHT22;2286;51.570;7.090;2023-04-24T05:33:12;9.80;99.90
4548;DHT22;2286;51.570;7.090;2023-04-24T05:35:40;9.90;1.00
4548;DHT22;2286;51.570;7.090;2023-04-24T05:38:11;9.90;1.00
4548;DHT22;2286;51.570;7.090;2023-04-24T05:40:39;9.90;99.90
4548;DHT22;2286;51.570;7.090;2023-04-24T05:43:06;9.90;1.00
4548;DHT22;2286;51.570;7.090;2023-04-24T05:45:33;9.80;1.00
4548;DHT22;2286;51.570;7.090;2023-04-24T05:48:01;9.70;99.90
4548;DHT22;2286;51.570;7.090;2023-04-24T05:50:28;9.50;99.90
4548;DHT22;2286;51.570;7.090;2023-04-24T05:52:55;9.30;76.20
4548;DHT22;2286;51.570;7.090;2023-04-24T05:55:23;9.10;1.00
4548;DHT22;2286;51.570;7.090;2023-04-24T05:57:52;9.00;99.90
4548;DHT22;2286;51.570;7.090;2023-04-24T06:00:19;8.90;99.90
4548;DHT22;2286;51.570;7.090;2023-04-24T06:02:46;8.90;1.00
4548;DHT22;2286;51.570;7.090;2023-04-24T06:05:13;8.80;99.90
4548;DHT22;2286;51.570;7.090;2023-04-24T06:07:40;8.80;99.90
4548;DHT22;2286;51.570;7.090;2023-04-24T06:10:08;8.80;1.00
4548;DHT22;2286;51.570;7.090;2023-04-24T06:12:35;8.90;1.00
4548;DHT22;2286;51.570;7.090;2023-04-24T06:15:04;8.80;99.90
4548;DHT22;2286;51.570;7.090;2023-04-24T06:17:31;8.90;99.50
4548;DHT22;2286;51.570;7.090;2023-04-24T06:19:58;8.90;99.90
4548;DHT22;2286;51.570;7.090;2023-04-24T06:22:25;9.00;99.90
4548;DHT22;2286;51.570;7.090;2023-04-24T06:24:52;9.00;30.10
4548;DHT22;2286;51.570;7.090;2023-04-24T06:27:19;9.10;1.00
4548;DHT22;2286;51.570;7.090;2023-04-24T06:29:46;9.10;1.00
4548;DHT22;2286;51.570;7.090;2023-04-24T06:32:19;9.20;95.90
4548;DHT22;2286;51.570;7.090;2023-04-24T06:34:46;9.20;57.10
4548;DHT22;2286;51.570;7.090;2023-04-24T06:37:13;9.30;1.00
4548;DHT22;2286;51.570;7.090;2023-04-24T06:39:41;9.50;1.00
4548;DHT22;2286;51.570;7.090;2023-04-24T06:42:08;9.30;99.90
4548;DHT22;2286;51.570;7.090;2023-04-24T06:44:36;9.20;99.90
4548;DHT22;2286;51.570;7.090;2023-04-24T06:47:06;9.10;99.90
4548;DHT22;2286;51.570;7.090;2023-04-24T06:49:35;9.10;99.90
4548;DHT22;2286;51.570;7.090;2023-04-24T06:52:02;9.00;91.90
4548;DHT22;2286;51.570;7.090;2023-04-24T06:54:29;9.10;99.90
4548;DHT22;2286;51.570;7.090;2023-04-24T06:56:56;9.00;99.90
4548;DHT22;2286;51.570;7.090;2023-04-24T06:59:23;8.90;1.00
4548;DHT22;2286;51.570;7.090;2023-04-24T07:01:50;8.80;99.90
4548;DHT22;2286;51.570;7.090;2023-04-24T07:04:17;8.90;99.90
4548;DHT22;2286;51.570;7.090;2023-04-24T07:06:46;8.90;99.90
4548;DHT22;2286;51.570;7.090;2023-04-24T07:09:14;8.90;1.00
4548;DHT22;2286;51.570;7.090;2023-04-24T07:11:44;8.90;99.90
4548;DHT22;2286;51.570;7.090;2023-04-24T07:14:10;9.00;1.00
4548;DHT22;2286;51.570;7.090;2023-04-24T07:16:37;9.00;1.00
4548;DHT22;2286;51.570;7.090;2023-04-24T07:19:05;9.00;1.00
4548;DHT22;2286;51.570;7.090;2023-04-24T07:21:32;9.00;1.00
4548;DHT22;2286;51.570;7.090;2023-04-24T07:24:00;9.00;1.00
4548;DHT22;2286;51.570;7.090;2023-04-24T07:26:28;8.90;1.00
4548;DHT22;2286;51.570;7.090;2023-04-24T07:28:55;9.00;1.00
4548;DHT22;2286;51.570;7.090;2023-04-24T07:31:22;9.00;99.90
4548;DHT22;2286;51.570;7.090;2023-04-24T07:33:49;9.10;99.90
4548;DHT22;2286;51.570;7.090;2023-04-24T07:36:16;9.10;1.00
4548;DHT22;2286;51.570;7.090;2023-04-24T07:38:45;9.00;99.90
4548;DHT22;2286;51.570;7.090;2023-04-24T07:41:13;9.00;1.00
4548;DHT22;2286;51.570;7.090;2023-04-24T07:43:40;9.10;99.90
4548;DHT22;2286;51.570;7.090;2023-04-24T07:46:08;9.10;1.00
4548;DHT22;2286;51.570;7.090;2023-04-24T07:48:35;9.20;1.00
4548;DHT22;2286;51.570;7.090;2023-04-24T07:51:02;9.30;9.40
4548;DHT22;2286;51.570;7.090;2023-04-24T07:53:29;9.40;1.00
4548;DHT22;2286;51.570;7.090;2023-04-24T07:55:56;9.40;65.60
4548;DHT22;2286;51.570;7.090;2023-04-24T07:58:24;9.40;99.90
4548;DHT22;2286;51.570;7.090;2023-04-24T08:00:51;9.30;86.30
4548;DHT22;2286;51.570;7.090;2023-04-24T08:03:18;9.40;1.00
4548;DHT22;2286;51.570;7.090;2023-04-24T08:05:45;9.30;99.90
4548;DHT22;2286;51.570;7.090;2023-04-24T08:08:12;9.30;1.00
4548;DHT22;2286;51.570;7.090;2023-04-24T08:10:40;9.30;99.90
4548;DHT22;2286;51.570;7.090;2023-04-24T08:13:07;9.00;45.10
4548;DHT22;2286;51.570;7.090;2023-04-24T08:15:35;8.80;99.90
4548;DHT22;2286;51.570;7.090;2023-04-24T08:18:02;8.60;20.70
4548;DHT22;2286;51.570;7.090;2023-04-24T08:20:29;8.40;1.00
4548;DHT22;2286;51.570;7.090;2023-04-24T08:22:56;8.40;24.40
4548;DHT22;2286;51.570;7.090;2023-04-24T08:25:23;8.30;1.00
4548;DHT22;2286;51.570;7.090;2023-04-24T08:27:50;8.30;1.00
4548;DHT22;2286;51.570;7.090;2023-04-24T08:30:17;8.30;99.90
4548;DHT22;2286;51.570;7.090;2023-04-24T08:32:45;8.20;99.90
4548;DHT22;2286;51.570;7.090;2023-04-24T08:35:12;8.10;99.90
4548;DHT22;2286;51.570;7.090;2023-04-24T08:37:39;8.10;1.00
4548;DHT22;2286;51.570;7.090;2023-04-24T08:40:12;8.10;1.00
4548;DHT22;2286;51.570;7.090;2023-04-24T08:42:40;8.10;1.00
4548;DHT22;2286;51.570;7.090;2023-04-24T08:45:09;8.10;99.90
4548;DHT22;2286;51.570;7.090;2023-04-24T08:47:37;8.20;99.90
4548;DHT22;2286;51.570;7.090;2023-04-24T08:50:07;8.20;99.90
4548;DHT22;2286;51.570;7.090;2023-04-24T08:52:35;8.20;99.90
4548;DHT22;2286;51.570;7.090;2023-04-24T08:55:02;8.20;99.90
4548;DHT22;2286;51.570;7.090;2023-04-24T08:57:29;8.20;99.90
4548;DHT22;2286;51.570;7.090;2023-04-24T08:59:58;8.20;99.90
4548;DHT22;2286;51.570;7.090;2023-04-24T09:02:26;8.20;99.90
4548;DHT22;2286;51.570;7.090;2023-04-24T09:04:54;8.30;99.90
4548;DHT22;2286;51.570;7.090;2023-04-24T09:07:24;8.40;99.90
4548;DHT22;2286;51.570;7.090;2023-04-24T09:09:54;8.40;99.90
4548;DHT22;2286;51.570;7.090;2023-04-24T09:12:21;8.30;99.90
4548;DHT22;2286;51.570;7.090;2023-04-24T09:14:49;8.30;99.90
4548;DHT22;2286;51.570;7.090;2023-04-24T09:17:16;8.40;99.90
4548;DHT22;2286;51.570;7.090;2023-04-24T09:19:43;8.50;99.90
4548;DHT22;2286;51.570;7.090;2023-04-24T09:22:11;8.60;99.90
4548;DHT22;2286;51.570;7.090;2023-04-24T09:24:39;8.70;99.90
4548;DHT22;2286;51.570;7.090;2023-04-24T09:27:07;8.80;99.90
4548;DHT22;2286;51.570;7.090;2023-04-24T09:29:33;8.90;99.90
4548;DHT22;2286;51.570;7.090;2023-04-24T09:32:18;9.00;99.90
4548;DHT22;2286;51.570;7.090;2023-04-24T09:34:47;9.00;99.90
4548;DHT22;2286;51.570;7.090;2023-04-24T09:37:27;9.00;99.90
4548;DHT22;2286;51.570;7.090;2023-04-24T09:40:12;8.90;99.90
4548;DHT22;2286;51.570;7.090;2023-04-24T09:42:39;8.80;99.90
4548;DHT22;2286;51.570;7.090;2023-04-24T09:45:10;8.70;99.90
4548;DHT22;2286;51.570;7.090;2023-04-24T09:47:38;8.60;99.90
4548;DHT22;2286;51.570;7.090;2023-04-24T09:50:14;8.60;99.90
4548;DHT22;2286;51.570;7.090;2023-04-24T09:52:42;8.50;99.90
4548;DHT22;2286;51.570;7.090;2023-04-24T09:55:20;8.50;99.90
4548;DHT22;2286;51.570;7.090;2023-04-24T09:57:49;8.50;99.90
4548;DHT22;2286;51.570;7.090;2023-04-24T10:00:22;8.40;99.90
4548;DHT22;2286;51.570;7.090;2023-04-24T10:02:57;8.40;99.90
4548;DHT22;2286;51.570;7.090;2023-04-24T10:05:27;8.30;99.90
4548;DHT22;2286;51.570;7.090;2023-04-24T10:08:00;8.30;99.90
4548;DHT22;2286;51.570;7.090;2023-04-24T10:10:28;8.30;99.90
4548;DHT22;2286;51.570;7.090;2023-04-24T10:12:55;8.30;99.90
4548;DHT22;2286;51.570;7.090;2023-04-24T10:15:22;8.30;99.90
4548;DHT22;2286;51.570;7.090;2023-04-24T10:17:51;8.30;99.90
4548;DHT22;2286;51.570;7.090;2023-04-24T10:20:22;8.30;99.90
4548;DHT22;2286;51.570;7.090;2023-04-24T10:22:50;8.30;99.90
4548;DHT22;2286;51.570;7.090;2023-04-24T10:25:19;8.40;99.90
4548;DHT22;2286;51.570;7.090;2023-04-24T10:27:49;8.40;99.90
4548;DHT22;2286;51.570;7.090;2023-04-24T10:30:17;8.40;99.90
4548;DHT22;2286;51.570;7.090;2023-04-24T10:32:44;8.50;99.90
4548;DHT22;2286;51.570;7.090;2023-04-24T10:35:13;8.60;99.90
4548;DHT22;2286;51.570;7.090;2023-04-24T10:37:43;8.70;99.90
4548;DHT22;2286;51.570;7.090;2023-04-24T10:40:12;8.70;99.90
4548;DHT22;2286;51.570;7.090;2023-04-24T10:42:42;8.80;99.90
4548;DHT22;2286;51.570;7.090;2023-04-24T10:45:18;8.80;99.90
4548;DHT22;2286;51.570;7.090;2023-04-24T10:47:56;8.70;99.90
4548;DHT22;2286;51.570;7.090;2023-04-24T10:50:25;8.80;99.90
4548;DHT22;2286;51.570;7.090;2023-04-24T10:52:52;8.90;99.90
4548;DHT22;2286;51.570;7.090;2023-04-24T10:55:42;8.70;99.90
4548;DHT22;2286;51.570;7.090;2023-04-24T10:58:09;8.60;99.90
4548;DHT22;2286;51.570;7.090;2023-04-24T11:00:39;8.60;99.90
4548;DHT22;2286;51.570;7.090;2023-04-24T11:03:06;8.60;99.90
4548;DHT22;2286;51.570;7.090;2023-04-24T11:05:51;8.60;99.90
4548;DHT22;2286;51.570;7.090;2023-04-24T11:08:25;8.60;99.90
4548;DHT22;2286;51.570;7.090;2023-04-24T11:10:58;8.50;99.90
4548;DHT22;2286;51.570;7.090;2023-04-24T11:13:27;8.40;99.90
4548;DHT22;2286;51.570;7.090;2023-04-24T11:16:15;8.40;99.90
4548;DHT22;2286;51.570;7.090;2023-04-24T11:18:50;8.30;99.90
4548;DHT22;2286;51.570;7.090;2023-04-24T11:21:20;8.40;99.90
4548;DHT22;2286;51.570;7.090;2023-04-24T11:23:47;8.60;99.90
4548;DHT22;2286;51.570;7.090;2023-04-24T11:26:18;8.90;99.90
4548;DHT22;2286;51.570;7.090;2023-04-24T11:28:46;8.90;99.90
4548;DHT22;2286;51.570;7.090;2023-04-24T11:31:37;9.20;99.90
4548;DHT22;2286;51.570;7.090;2023-04-24T11:34:09;9.70;99.90
4548;DHT22;2286;51.570;7.090;2023-04-24T11:36:36;9.80;99.90
4548;DHT22;2286;51.570;7.090;2023-04-24T11:39:03;10.10;17.80
4548;DHT22;2286;51.570;7.090;2023-04-24T11:41:30;9.90;99.90
4548;DHT22;2286;51.570;7.090;2023-04-24T11:43:57;10.00;1.00
4548;DHT22;2286;51.570;7.090;2023-04-24T11:46:27;9.90;99.90
4548;DHT22;2286;51.570;7.090;2023-04-24T11:48:57;9.80;99.90
4548;DHT22;2286;51.570;7.090;2023-04-24T11:51:25;9.90;1.00
4548;DHT22;2286;51.570;7.090;2023-04-24T11:53:52;10.10;99.90
4548;DHT22;2286;51.570;7.090;2023-04-24T11:56:21;10.00;99.90
4548;DHT22;2286;51.570;7.090;2023-04-24T11:58:48;10.10;99.90
4548;DHT22;2286;51.570;7.090;2023-04-24T12:01:15;10.10;1.00
4548;DHT22;2286;51.570;7.090;2023-04-24T12:03:47;9.90;1.00
4548;DHT22;2286;51.570;7.090;2023-04-24T12:06:17;10.00;1.00
4548;DHT22;2286;51.570;7.090;2023-04-24T12:08:46;10.10;99.90
4548;DHT22;2286;51.570;7.090;2023-04-24T12:11:16;10.10;1.00
4548;DHT22;2286;51.570;7.090;2023-04-24T12:13:44;10.20;1.00
4548;DHT22;2286;51.570;7.090;2023-04-24T12:16:11;10.20;99.90
4548;DHT22;2286;51.570;7.090;2023-04-24T12:18:42;10.30;99.90
4548;DHT22;2286;51.570;7.090;2023-04-24T12:21:19;10.50;99.90
4548;DHT22;2286;51.570;7.090;2023-04-24T12:23:47;10.80;6.00
4548;DHT22;2286;51.570;7.090;2023-04-24T12:26:17;10.70;16.20
4548;DHT22;2286;51.570;7.090;2023-04-24T12:28:47;10.50;1.00
4548;DHT22;2286;51.570;7.090;2023-04-24T12:31:15;10.20;99.90
4548;DHT22;2286;51.570;7.090;2023-04-24T12:33:42;10.00;99.90
4548;DHT22;2286;51.570;7.090;2023-04-24T12:36:10;9.70;1.00
4548;DHT22;2286;51.570;7.090;2023-04-24T12:38:43;9.50;99.90
4548;DHT22;2286;51.570;7.090;2023-04-24T12:41:13;9.50;99.90
4548;DHT22;2286;51.570;7.090;2023-04-24T12:43:51;9.40;99.90
4548;DHT22;2286;51.570;7.090;2023-04-24T12:46:18;9.30;30.00
4548;DHT22;2286;51.570;7.090;2023-04-24T12:48:45;9.40;99.90
4548;DHT22;2286;51.570;7.090;2023-04-24T12:51:11;9.60;99.90
4548;DHT22;2286;51.570;7.090;2023-04-24T12:53:40;9.90;99.90
4548;DHT22;2286;51.570;7.090;2023-04-24T12:56:07;10.40;1.00
4548;DHT22;2286;51.570;7.090;2023-04-24T12:58:33;11.70;99.90
4548;DHT22;2286;51.570;7.090;2023-04-24T13:01:00;12.40;1.00
4548;DHT22;2286;51.570;7.090;2023-04-24T13:03:28;11.70;99.90
4548;DHT22;2286;51.570;7.090;2023-04-24T13:05:54;11.00;99.90
4548;DHT22;2286;51.570;7.090;2023-04-24T13:08:21;10.70;14.00
4548;DHT22;2286;51.570;7.090;2023-04-24T13:10:50;10.30;99.90
4548;DHT22;2286;51.570;7.090;2023-04-24T13:13:17;10.20;99.90
4548;DHT22;2286;51.570;7.090;2023-04-24T13:15:44;10.10;99.90
4548;DHT22;2286;51.570;7.090;2023-04-24T13:18:11;10.10;1.00
4548;DHT22;2286;51.570;7.090;2023-04-24T13:20:38;10.00;99.90
4548;DHT22;2286;51.570;7.090;2023-04-24T13:23:06;10.00;99.90
4548;DHT22;2286;51.570;7.090;2023-04-24T13:25:35;10.00;1.00
4548;DHT22;2286;51.570;7.090;2023-04-24T13:28:04;10.00;99.90
4548;DHT22;2286;51.570;7.090;2023-04-24T13:30:31;10.00;99.90
4548;DHT22;2286;51.570;7.090;2023-04-24T13:32:58;10.00;99.90
4548;DHT22;2286;51.570;7.090;2023-04-24T13:35:25;10.00;99.90
4548;DHT22;2286;51.570;7.090;2023-04-24T13:37:52;10.10;99.90
4548;DHT22;2286;51.570;7.090;2023-04-24T13:40:19;10.00;99.90
4548;DHT22;2286;51.570;7.090;2023-04-24T13:42:46;10.10;99.90
4548;DHT22;2286;51.570;7.090;2023-04-24T13:45:14;10.00;99.90
4548;DHT22;2286;51.570;7.090;2023-04-24T13:47:41;10.00;94.90
4548;DHT22;2286;51.570;7.090;2023-04-24T13:50:08;10.00;5.30
4548;DHT22;2286;51.570;7.090;2023-04-24T13:52:35;10.10;99.90
4548;DHT22;2286;51.570;7.090;2023-04-24T13:55:02;10.20;1.00
4548;DHT22;2286;51.570;7.090;2023-04-24T13:57:30;10.40;1.00
4548;DHT22;2286;51.570;7.090;2023-04-24T13:59:58;10.80;1.00
4548;DHT22;2286;51.570;7.090;2023-04-24T14:02:28;11.10;1.00
4548;DHT22;2286;51.570;7.090;2023-04-24T14:04:55;11.20;1.00
4548;DHT22;2286;51.570;7.090;2023-04-24T14:07:21;11.30;99.90
4548;DHT22;2286;51.570;7.090;2023-04-24T14:09:48;11.30;99.90
4548;DHT22;2286;51.570;7.090;2023-04-24T14:12:16;11.20;99.90
4548;DHT22;2286;51.570;7.090;2023-04-24T14:14:45;11.30;99.90
4548;DHT22;2286;51.570;7.090;2023-04-24T14:17:13;11.50;99.90
4548;DHT22;2286;51.570;7.090;2023-04-24T14:19:41;11.60;96.30
4548;DHT22;2286;51.570;7.090;2023-04-24T14:22:10;11.30;1.00
4548;DHT22;2286;51.570;7.090;2023-04-24T14:24:37;10.90;99.90
4548;DHT22;2286;51.570;7.090;2023-04-24T14:27:04;10.80;99.90
4548;DHT22;2286;51.570;7.090;2023-04-24T14:29:31;10.60;1.00
4548;DHT22;2286;51.570;7.090;2023-04-24T14:31:57;10.50;99.90
4548;DHT22;2286;51.570;7.090;2023-04-24T14:34:24;10.40;99.90
4548;DHT22;2286;51.570;7.090;2023-04-24T14:36:53;10.20;1.00
4548;DHT22;2286;51.570;7.090;2023-04-24T14:39:20;10.00;1.00
4548;DHT22;2286;51.570;7.090;2023-04-24T14:41:47;9.70;1.00
4548;DHT22;2286;51.570;7.090;2023-04-24T14:44:14;9.60;99.90
4548;DHT22;2286;51.570;7.090;2023-04-24T14:46:41;9.30;99.90
4548;DHT22;2286;51.570;7.090;2023-04-24T14:49:08;9.10;1.00
4548;DHT22;2286;51.570;7.090;2023-04-24T14:51:37;9.00;1.00
4548;DHT22;2286;51.570;7.090;2023-04-24T14:54:05;9.20;1.00
4548;DHT22;2286;51.570;7.090;2023-04-24T14:56:32;9.30;99.90
4548;DHT22;2286;51.570;7.090;2023-04-24T14:58:59;9.50;1.00
4548;DHT22;2286;51.570;7.090;2023-04-24T15:01:26;9.60;99.90
4548;DHT22;2286;51.570;7.090;2023-04-24T15:03:53;9.70;1.90
4548;DHT22;2286;51.570;7.090;2023-04-24T15:06:20;9.70;99.90
4548;DHT22;2286;51.570;7.090;2023-04-24T15:08:48;10.00;1.00
4548;DHT22;2286;51.570;7.090;2023-04-24T15:11:16;11.30;1.00
4548;DHT22;2286;51.570;7.090;2023-04-24T15:13:43;11.20;67.90
4548;DHT22;2286;51.570;7.090;2023-04-24T15:16:11;11.10;83.90
4548;DHT22;2286;51.570;7.090;2023-04-24T15:18:38;11.30;1.00
4548;DHT22;2286;51.570;7.090;2023-04-24T15:21:05;11.70;99.90
4548;DHT22;2286;51.570;7.090;2023-04-24T15:23:32;12.30;1.00
4548;DHT22;2286;51.570;7.090;2023-04-24T15:25:59;12.20;1.00
4548;DHT22;2286;51.570;7.090;2023-04-24T15:28:28;12.10;99.90
4548;DHT22;2286;51.570;7.090;2023-04-24T15:30:54;12.30;99.90
4548;DHT22;2286;51.570;7.090;2023-04-24T15:33:21;12.10;99.90
4548;DHT22;2286;51.570;7.090;2023-04-24T15:35:48;11.60;99.90
4548;DHT22;2286;51.570;7.090;2023-04-24T15:38:15;11.00;1.00
4548;DHT22;2286;51.570;7.090;2023-04-24T15:40:42;10.80;1.00
4548;DHT22;2286;51.570;7.090;2023-04-24T15:43:10;10.60;99.90
4548;DHT22;2286;51.570;7.090;2023-04-24T15:45:38;10.60;1.00
4548;DHT22;2286;51.570;7.090;2023-04-24T15:48:05;10.50;99.90
4548;DHT22;2286;51.570;7.090;2023-04-24T15:50:32;10.50;45.50
4548;DHT22;2286;51.570;7.090;2023-04-24T15:52:59;10.50;60.50
4548;DHT22;2286;51.570;7.090;2023-04-24T15:55:27;10.50;99.90
4548;DHT22;2286;51.570;7.090;2023-04-24T15:57:54;10.60;1.00
4548;DHT22;2286;51.570;7.090;2023-04-24T16:00:21;10.60;1.00
4548;DHT22;2286;51.570;7.090;2023-04-24T16:02:49;10.60;1.00
4548;DHT22;2286;51.570;7.090;2023-04-24T16:05:16;10.60;1.00
4548;DHT22;2286;51.570;7.090;2023-04-24T16:07:44;10.70;1.00
4548;DHT22;2286;51.570;7.090;2023-04-24T16:10:11;10.80;1.00
4548;DHT22;2286;51.570;7.090;2023-04-24T16:12:38;10.80;1.00
4548;DHT22;2286;51.570;7.090;2023-04-24T16:15:06;11.40;99.90
4548;DHT22;2286;51.570;7.090;2023-04-24T16:17:33;13.30;1.00
4548;DHT22;2286;51.570;7.090;2023-04-24T16:20:01;14.70;99.90
4548;DHT22;2286;51.570;7.090;2023-04-24T16:22:29;15.20;99.90